Time;durP1;ratioP1;P1;durP2;ratioP2;P2;SDS_P1;SDS_P2;PMS_P1;PMS_P2;Temp;Humidity;BMP_temperature;BMP_pressure;BME280_temperature;BME280_humidity;BME280_pressure;Samples;Min_cycle;Max_cycle;Signal;HPM_P1;HPM_P2
2022/04/22 00:01:17;;;;;;;18.98;5.15;;;9.10;99.90;;;;;;5053512;28;20499;-52
2022/04/22 00:03:43;;;;;;;17.08;5.05;;;9.10;99.90;;;;;;5054163;28;20024;-55
2022/04/22 00:06:09;;;;;;;13.52;3.88;;;9.10;99.90;;;;;;5068226;28;20455;-49
2022/04/22 00:08:34;;;;;;;13.48;3.95;;;9.00;99.90;;;;;;5053485;28;20032;-52
2022/04/22 00:13:45;;;;;;;12.55;4.35;;;9.00;99.90;;;;;;5053464;28;20535;-52
2022/04/22 00:16:11;;;;;;;12.10;4.80;;;9.00;99.90;;;;;;5056246;28;20080;-53
2022/04/22 00:18:37;;;;;;;12.77;4.30;;;9.00;99.90;;;;;;5053550;28;20025;-50
2022/04/22 00:21:03;;;;;;;18.45;4.75;;;8.90;99.90;;;;;;5053608;28;20370;-52
2022/04/22 00:23:29;;;;;;;18.35;4.55;;;8.90;99.90;;;;;;5053404;28;20029;-51
2022/04/22 00:25:56;;;;;;;24.20;4.97;;;9.00;99.90;;;;;;5064728;28;20043;-50
2022/04/22 00:28:23;;;;;;;14.07;4.25;;;8.90;99.90;;;;;;5053455;28;20227;-52
2022/04/22 00:30:48;;;;;;;15.38;5.68;;;8.90;99.90;;;;;;5059044;28;20093;-53
2022/04/22 00:33:15;;;;;;;10.75;4.53;;;8.90;99.90;;;;;;5053049;28;20033;-52
2022/04/22 00:35:41;;;;;;;16.08;5.40;;;8.80;99.90;;;;;;5058510;28;20045;-50
2022/04/22 00:38:07;;;;;;;14.30;4.88;;;8.80;99.90;;;;;;5052927;28;20442;-53
2022/04/22 00:40:32;;;;;;;22.73;5.70;;;8.80;99.90;;;;;;5053058;28;20107;-49
2022/04/22 00:42:59;;;;;;;17.02;5.07;;;8.80;99.90;;;;;;5051379;28;20027;-50
2022/04/22 00:45:24;;;;;;;16.98;4.90;;;8.80;99.90;;;;;;5057979;28;20483;-48
2022/04/22 00:47:50;;;;;;;20.23;4.35;;;8.80;99.90;;;;;;5054070;28;20026;-52
2022/04/22 00:50:18;;;;;;;11.38;4.82;;;8.80;99.90;;;;;;5053139;28;20029;-49
2022/04/22 00:52:43;;;;;;;17.55;4.97;;;8.80;99.90;;;;;;5053925;28;20075;-51
2022/04/22 00:55:09;;;;;;;17.40;5.22;;;8.80;99.90;;;;;;5053718;28;20037;-51
2022/04/22 00:57:35;;;;;;;15.45;5.63;;;8.80;99.90;;;;;;5051838;28;20359;-53
2022/04/22 01:00:03;;;;;;;13.57;5.55;;;8.80;99.90;;;;;;5052835;28;20021;-52
2022/04/22 01:02:28;;;;;;;20.65;6.30;;;8.90;99.90;;;;;;5053061;28;20021;-52
2022/04/22 01:10:23;;;;;;;24.30;7.07;;;8.90;99.90;;;;;;5052717;28;20119;-51
2022/04/22 01:12:48;;;;;;;12.88;6.80;;;9.00;99.90;;;;;;5052880;28;20118;-51
2022/04/22 01:15:14;;;;;;;20.55;6.30;;;8.90;99.90;;;;;;5051841;28;20128;-51
2022/04/22 01:17:40;;;;;;;20.58;6.40;;;8.90;99.90;;;;;;5050745;28;20025;-53
2022/04/22 01:20:07;;;;;;;18.10;6.55;;;9.00;99.90;;;;;;5085278;28;20086;-54
2022/04/22 01:22:33;;;;;;;22.55;7.78;;;9.00;99.90;;;;;;5059506;28;20032;-53
2022/04/22 01:25:00;;;;;;;22.80;7.15;;;9.00;99.90;;;;;;5059885;28;20033;-53
2022/04/22 01:27:29;;;;;;;30.67;8.18;;;9.00;99.90;;;;;;5051170;28;20027;-53
2022/04/22 01:30:00;;;;;;;17.73;7.25;;;8.90;99.90;;;;;;5051169;28;20036;-52
2022/04/22 01:32:27;;;;;;;23.15;7.13;;;9.00;99.90;;;;;;5049875;28;20048;-53
2022/04/22 01:34:53;;;;;;;29.10;7.63;;;9.00;99.90;;;;;;5051141;28;20056;-53
2022/04/22 01:37:19;;;;;;;21.13;8.40;;;9.00;99.90;;;;;;5048320;28;20032;-52
2022/04/22 01:39:44;;;;;;;18.55;7.50;;;9.00;99.90;;;;;;5051124;28;20033;-55
2022/04/22 01:42:10;;;;;;;20.33;7.90;;;9.00;99.90;;;;;;5072098;28;20029;-53
2022/04/22 01:44:37;;;;;;;23.08;8.30;;;9.00;99.90;;;;;;5071119;28;20067;-54
2022/04/22 01:47:04;;;;;;;24.25;8.20;;;9.10;99.90;;;;;;5055023;28;20021;-51
2022/04/22 01:49:30;;;;;;;19.45;8.30;;;9.10;99.90;;;;;;5032628;28;20366;-53
2022/04/22 01:51:56;;;;;;;15.00;7.40;;;9.10;99.90;;;;;;5033420;28;20120;-50
2022/04/22 01:54:22;;;;;;;23.55;8.60;;;9.20;99.90;;;;;;5052146;28;20425;-51
2022/04/22 01:56:47;;;;;;;30.63;9.13;;;9.20;99.90;;;;;;5051603;28;20170;-52
2022/04/22 01:59:13;;;;;;;20.90;8.45;;;9.30;99.90;;;;;;5051842;28;20063;-51
2022/04/22 02:01:39;;;;;;;18.58;8.30;;;9.30;99.90;;;;;;5066227;28;20158;-52
2022/04/22 02:04:04;;;;;;;23.17;9.00;;;9.30;99.90;;;;;;5054244;28;20479;-53
2022/04/22 02:06:30;;;;;;;17.77;9.13;;;9.30;99.90;;;;;;5051852;28;20021;-51
2022/04/22 02:08:57;;;;;;;25.85;8.88;;;9.40;99.90;;;;;;5051741;28;20477;-53
2022/04/22 02:11:22;;;;;;;19.33;9.48;;;9.40;99.90;;;;;;5050590;28;20040;-51
2022/04/22 02:13:48;;;;;;;30.48;9.82;;;9.40;99.90;;;;;;5051891;28;20028;-50
2022/04/22 02:16:14;;;;;;;21.17;9.15;;;9.40;99.90;;;;;;5051068;28;20033;-50
2022/04/22 02:18:42;;;;;;;28.52;9.68;;;9.30;99.90;;;;;;5062656;28;20035;-48
2022/04/22 02:21:08;;;;;;;;;;;9.30;99.90;;;;;;5058672;28;20436;-53
2022/04/22 02:23:34;;;;;;;16.38;8.75;;;9.40;99.90;;;;;;5051252;28;20426;-51
2022/04/22 02:26:00;;;;;;;28.85;10.00;;;9.40;99.90;;;;;;5051549;28;20028;-51
2022/04/22 02:28:32;;;;;;;22.35;10.88;;;9.40;99.90;;;;;;5051533;28;20162;-51
2022/04/22 02:31:06;;;;;;;31.50;11.85;;;9.50;99.90;;;;;;5051756;28;20469;-53
2022/04/22 02:33:33;;;;;;;23.92;9.57;;;9.50;99.90;;;;;;5051727;28;20029;-52
2022/04/22 02:35:59;;;;;;;25.80;9.75;;;9.50;99.90;;;;;;5050546;28;20048;-53
2022/04/22 02:38:27;;;;;;;21.90;10.38;;;9.50;99.90;;;;;;5057927;28;20483;-52
2022/04/22 02:46:21;;;;;;;30.48;11.75;;;9.50;99.90;;;;;;5049896;28;20454;-53
2022/04/22 02:48:48;;;;;;;33.03;11.50;;;9.50;99.90;;;;;;5050269;28;20473;-53
2022/04/22 02:51:13;;;;;;;21.48;11.88;;;9.50;99.90;;;;;;5050126;28;20033;-54
2022/04/22 02:53:39;;;;;;;25.60;10.95;;;9.50;99.90;;;;;;5050547;28;20495;-53
2022/04/22 02:56:06;;;;;;;20.05;11.90;;;9.50;99.90;;;;;;5049568;28;20114;-54
2022/04/22 02:58:33;;;;;;;26.45;11.82;;;9.50;99.90;;;;;;5051200;28;20067;-51
2022/04/22 03:00:58;;;;;;;23.83;11.10;;;9.50;99.90;;;;;;5063828;28;20028;-52
2022/04/22 03:03:24;;;;;;;24.23;12.10;;;9.50;99.90;;;;;;5051882;28;20124;-53
2022/04/22 03:05:51;;;;;;;29.15;11.80;;;9.50;99.90;;;;;;5049522;28;20029;-53
2022/04/22 03:08:17;;;;;;;30.77;12.73;;;9.50;99.90;;;;;;5049834;28;20448;-52
2022/04/22 03:10:42;;;;;;;34.55;13.57;;;9.50;99.90;;;;;;5064296;28;20317;-53
2022/04/22 03:13:08;;;;;;;29.80;12.82;;;9.50;99.90;;;;;;5082583;28;20040;-53
2022/04/22 03:15:36;;;;;;;28.23;11.93;;;9.40;99.90;;;;;;5049938;28;20036;-53
2022/04/22 03:18:02;;;;;;;30.60;12.15;;;9.40;99.90;;;;;;5050186;28;20048;-53
2022/04/22 03:20:28;;;;;;;26.25;12.70;;;9.40;99.90;;;;;;5049913;28;20025;-53
2022/04/22 03:22:53;;;;;;;29.67;11.50;;;9.40;99.90;;;;;;5082009;28;20029;-51
2022/04/22 03:25:20;;;;;;;29.42;12.90;;;9.40;99.90;;;;;;5049803;28;20350;-53
2022/04/22 03:27:46;;;;;;;30.48;12.35;;;9.40;99.90;;;;;;5049823;28;20075;-53
2022/04/22 03:30:13;;;;;;;37.30;12.15;;;9.50;99.90;;;;;;5050818;28;20021;-51
2022/04/22 03:32:38;;;;;;;23.33;11.40;;;9.50;99.90;;;;;;5049890;28;20100;-52
2022/04/22 03:35:06;;;;;;;23.30;12.90;;;9.50;99.90;;;;;;5051677;28;20133;-52
2022/04/22 03:37:31;;;;;;;30.88;13.40;;;9.50;99.90;;;;;;5049930;28;20052;-52
2022/04/22 03:39:57;;;;;;;23.50;11.13;;;9.60;99.90;;;;;;5055907;28;20024;-53
2022/04/22 03:42:23;;;;;;;30.05;12.95;;;9.60;99.90;;;;;;5053535;28;20021;-52
2022/04/22 03:44:49;;;;;;;32.42;12.45;;;9.60;99.90;;;;;;5053425;28;20086;-52
2022/04/22 03:47:14;;;;;;;33.05;12.88;;;9.60;99.90;;;;;;5053539;28;20477;-53
2022/04/22 03:49:40;;;;;;;27.13;12.20;;;9.60;99.90;;;;;;5049740;28;20472;-53
2022/04/22 03:52:06;;;;;;;30.38;11.30;;;9.60;99.90;;;;;;5053317;28;20481;-53
2022/04/22 03:54:32;;;;;;;30.90;12.45;;;9.50;99.90;;;;;;5052913;28;20029;-53
2022/04/22 03:59:42;;;;;;;32.88;12.35;;;9.50;99.90;;;;;;5052758;28;20194;-51
2022/04/22 04:02:08;;;;;;;26.10;12.45;;;9.50;99.90;;;;;;5040005;28;20108;-53
2022/04/22 04:04:34;;;;;;;28.08;12.70;;;9.40;99.90;;;;;;5038856;28;20030;-51
2022/04/22 04:06:59;;;;;;;38.05;13.27;;;9.30;99.90;;;;;;5040259;28;20026;-52
2022/04/22 04:17:41;;;;;;;32.28;13.52;;;9.20;99.90;;;;;;5051020;28;20086;-53
2022/04/22 04:25:38;;;;;;;33.22;12.73;;;9.10;99.90;;;;;;5052602;28;20158;-53
2022/04/22 04:28:05;;;;;;;37.08;13.80;;;9.10;99.90;;;;;;5052817;28;20543;-52
2022/04/22 04:30:31;;;;;;;38.08;14.32;;;9.10;99.90;;;;;;5052125;28;20021;-52
2022/04/22 04:32:56;;;;;;;29.67;13.18;;;9.00;99.90;;;;;;5052379;28;20143;-54
2022/04/22 04:35:22;;;;;;;30.65;14.18;;;9.00;99.90;;;;;;5052286;28;20094;-53
2022/04/22 04:37:48;;;;;;;26.45;13.13;;;9.00;99.90;;;;;;5052109;28;20267;-53
2022/04/22 04:40:13;;;;;;;33.20;14.38;;;9.00;99.90;;;;;;5055606;28;20555;-52
2022/04/22 04:42:41;;;;;;;39.65;13.82;;;9.00;99.90;;;;;;5052748;28;20033;-52
2022/04/22 04:45:07;;;;;;;30.25;12.48;;;9.00;99.90;;;;;;5051774;28;20040;-51
2022/04/22 04:47:40;;;;;;;29.38;14.05;;;8.90;99.90;;;;;;5052804;28;20036;-53
2022/04/22 04:50:07;;;;;;;33.35;15.13;;;8.90;99.90;;;;;;5049182;28;20036;-52
2022/04/22 04:52:34;;;;;;;32.92;13.77;;;8.80;99.90;;;;;;5051950;28;20095;-53
2022/04/22 04:55:00;;;;;;;35.65;14.52;;;8.80;99.90;;;;;;5052209;28;20071;-52
2022/04/22 04:57:26;;;;;;;36.13;13.70;;;8.80;99.90;;;;;;5052046;28;20036;-53
2022/04/22 04:59:52;;;;;;;36.22;13.52;;;8.80;99.90;;;;;;5055632;28;20381;-53
2022/04/22 05:02:17;;;;;;;31.40;12.52;;;8.80;99.90;;;;;;5051308;28;20090;-50
2022/04/22 05:04:43;;;;;;;40.80;13.77;;;8.80;99.90;;;;;;5051827;28;20486;-51
2022/04/22 05:07:09;;;;;;;36.75;14.65;;;8.80;99.90;;;;;;5051682;28;20025;-52
2022/04/22 05:09:34;;;;;;;30.20;12.82;;;8.90;99.90;;;;;;5053251;28;20630;-52
2022/04/22 05:12:00;;;;;;;32.95;13.10;;;9.00;99.90;;;;;;5051469;28;20044;-52
2022/04/22 05:14:26;;;;;;;26.73;12.30;;;9.00;99.90;;;;;;5052194;28;20024;-53
2022/04/22 05:16:54;;;;;;;34.03;12.27;;;9.10;99.90;;;;;;5051705;28;20047;-53
2022/04/22 05:19:21;;;;;;;30.83;13.07;;;9.20;99.90;;;;;;5051056;28;20021;-53
2022/04/22 05:21:47;;;;;;;28.23;12.30;;;9.40;99.90;;;;;;5052175;28;20453;-53
2022/04/22 05:24:13;;;;;;;27.35;12.05;;;9.50;99.90;;;;;;5050184;28;20020;-54
2022/04/22 05:26:39;;;;;;;27.02;11.68;;;9.50;99.90;;;;;;5051870;28;20025;-52
2022/04/22 05:32:36;;;;;;;25.75;11.55;;;9.60;99.90;;;;;;5047786;28;20478;-51
2022/04/22 05:34:35;;;;;;;30.52;12.05;;;9.80;99.90;;;;;;5051218;28;20497;-51
2022/04/22 05:37:00;;;;;;;27.15;10.77;;;9.90;99.90;;;;;;5051363;28;20029;-50
2022/04/22 05:39:26;;;;;;;27.30;10.75;;;10.00;99.90;;;;;;5051593;28;20032;-50
2022/04/22 05:41:51;;;;;;;24.73;10.90;;;10.00;99.90;;;;;;5051539;28;20043;-51
2022/04/22 05:44:17;;;;;;;22.35;11.43;;;10.00;99.90;;;;;;5051131;28;20033;-52
2022/04/22 05:46:43;;;;;;;23.50;10.77;;;10.10;99.90;;;;;;5051145;28;20094;-49
2022/04/22 05:49:08;;;;;;;27.58;11.00;;;10.10;99.90;;;;;;5051606;28;20397;-51
2022/04/22 05:51:34;;;;;;;28.77;11.43;;;10.10;99.90;;;;;;5050957;28;20082;-52
2022/04/22 05:54:00;;;;;;;28.33;10.52;;;10.10;99.90;;;;;;5050977;28;20078;-52
2022/04/22 05:56:26;;;;;;;22.77;11.38;;;10.10;99.90;;;;;;5050239;28;20090;-53
2022/04/22 05:58:52;;;;;;;31.25;12.40;;;10.10;99.90;;;;;;5051258;28;20029;-51
2022/04/22 06:01:17;;;;;;;24.30;11.80;;;10.10;99.90;;;;;;5055549;28;20033;-53
2022/04/22 06:03:43;;;;;;;29.48;13.80;;;10.10;99.90;;;;;;5050907;28;20025;-51
2022/04/22 06:06:08;;;;;;;29.40;10.65;;;10.20;99.90;;;;;;5050756;28;20032;-49
2022/04/22 06:11:18;;;;;;;28.48;13.25;;;10.20;99.90;;;;;;5049710;28;20071;-53
2022/04/22 06:13:47;;;;;;;31.90;12.40;;;10.30;99.90;;;;;;5051082;28;20048;-53
2022/04/22 06:16:13;;;;;;;32.33;12.73;;;10.40;99.90;;;;;;5050387;28;20050;-51
2022/04/22 06:18:39;;;;;;;27.27;13.30;;;10.40;99.90;;;;;;5050130;28;20017;-51
2022/04/22 06:21:04;;;;;;;27.40;12.35;;;10.50;99.90;;;;;;5050464;28;20036;-50
2022/04/22 06:23:30;;;;;;;28.85;13.38;;;10.60;99.90;;;;;;5050102;28;20129;-52
2022/04/22 06:25:55;;;;;;;34.97;15.32;;;10.70;99.90;;;;;;5050138;28;20108;-54
2022/04/22 06:28:21;;;;;;;26.48;12.82;;;10.70;99.90;;;;;;5050630;28;20107;-52
2022/04/22 06:30:48;;;;;;;32.38;14.23;;;10.80;99.90;;;;;;5050446;28;20534;-54
2022/04/22 06:33:16;;;;;;;38.27;14.80;;;10.90;99.90;;;;;;5049705;28;20033;-53
2022/04/22 06:35:42;;;;;;;31.20;13.98;;;11.00;99.90;;;;;;5049790;28;20111;-52
2022/04/22 06:38:08;;;;;;;27.13;13.65;;;11.10;99.90;;;;;;5045240;28;20082;-51
2022/04/22 06:46:03;;;;;;;36.05;15.65;;;11.40;99.90;;;;;;5050320;28;20554;-54
2022/04/22 06:48:31;;;;;;;35.60;16.48;;;11.40;99.90;;;;;;5049823;28;20036;-52
2022/04/22 06:50:59;;;;;;;30.08;14.30;;;11.50;99.90;;;;;;5050579;28;20401;-52
2022/04/22 06:53:25;;;;;;;38.13;15.27;;;11.60;99.90;;;;;;5049910;28;20457;-53
2022/04/22 06:55:53;;;;;;;32.75;15.45;;;11.70;99.90;;;;;;5050147;28;20033;-53
2022/04/22 06:58:19;;;;;;;;;;;11.80;99.90;;;;;;5046806;28;20044;-51
2022/04/22 07:00:46;;;;;;;39.13;15.23;;;11.90;99.90;;;;;;5049472;28;19909;-53
2022/04/22 07:03:14;;;;;;;26.40;14.45;;;11.90;99.90;;;;;;5049931;28;20024;-53
2022/04/22 07:05:42;;;;;;;32.15;14.85;;;12.00;99.90;;;;;;5048628;28;20136;-51
2022/04/22 07:08:08;;;;;;;;;;;12.00;99.90;;;;;;5050864;28;20035;-53
2022/04/22 07:10:34;;;;;;;29.70;14.43;;;12.10;99.90;;;;;;5054306;28;20365;-51
2022/04/22 07:13:00;;;;;;;28.02;14.00;;;12.20;99.90;;;;;;5052549;28;20435;-54
2022/04/22 07:15:27;;;;;;;28.83;13.85;;;12.30;99.90;;;;;;5041766;28;20152;-52
2022/04/22 07:17:53;;;;;;;27.60;14.38;;;12.40;99.90;;;;;;5072997;28;20063;-53
2022/04/22 07:20:19;;;;;;;23.52;11.98;;;12.50;99.90;;;;;;5040090;28;20025;-52
2022/04/22 07:22:45;;;;;;;26.08;12.80;;;12.60;99.90;;;;;;5043746;28;20052;-54
2022/04/22 07:25:12;;;;;;;32.75;14.00;;;12.70;99.90;;;;;;5047427;28;20366;-53
2022/04/22 07:27:41;;;;;;;28.08;13.35;;;12.70;99.90;;;;;;5057570;28;20032;-53
2022/04/22 07:30:12;;;;;;;26.15;12.13;;;12.70;99.90;;;;;;5053751;28;20021;-53
2022/04/22 07:32:38;;;;;;;27.08;12.50;;;12.80;99.90;;;;;;5049998;28;20402;-53
2022/04/22 07:35:05;;;;;;;29.25;13.35;;;12.90;99.90;;;;;;5051658;28;20061;-53
2022/04/22 07:37:34;;;;;;;22.43;12.30;;;12.90;99.90;;;;;;5054329;28;20032;-53
2022/04/22 07:40:00;;;;;;;20.77;11.45;;;13.00;99.90;;;;;;5106690;28;20443;-51
2022/04/22 07:42:28;;;;;;;24.30;12.80;;;13.10;99.90;;;;;;5073390;28;20074;-53
2022/04/22 07:47:42;;;;;;;30.27;12.77;;;13.20;99.90;;;;;;5051285;28;20118;-50
2022/04/22 07:50:08;;;;;;;25.33;12.23;;;13.50;99.90;;;;;;5053606;28;20480;-53
2022/04/22 07:52:36;;;;;;;27.70;12.88;;;13.50;99.90;;;;;;5053917;28;20036;-51
2022/04/22 07:55:03;;;;;;;22.48;11.57;;;13.60;99.90;;;;;;5056779;28;20375;-52
2022/04/22 07:57:29;;;;;;;26.30;12.60;;;13.60;99.90;;;;;;5049771;28;20024;-54
2022/04/22 07:59:55;;;;;;;25.93;11.43;;;13.60;99.90;;;;;;5052865;28;20028;-49
2022/04/22 08:02:22;;;;;;;19.98;11.45;;;13.70;99.90;;;;;;5052323;28;20021;-53
2022/04/22 08:04:47;;;;;;;18.00;11.32;;;13.80;99.90;;;;;;5054080;28;20020;-51
2022/04/22 08:07:14;;;;;;;26.95;10.85;;;13.80;99.90;;;;;;5054077;28;20036;-51
2022/04/22 08:09:40;;;;;;;27.70;11.32;;;13.90;99.90;;;;;;5053968;28;20052;-54
2022/04/22 08:12:07;;;;;;;20.38;11.52;;;14.00;99.90;;;;;;5053872;28;20044;-52
2022/04/22 08:14:34;;;;;;;25.23;11.50;;;14.10;99.90;;;;;;5053293;28;20111;-53
2022/04/22 08:17:00;;;;;;;17.75;10.75;;;14.20;99.90;;;;;;5053049;28;20493;-52
2022/04/22 08:19:26;;;;;;;21.90;11.75;;;14.30;99.90;;;;;;5051928;28;20021;-53
2022/04/22 08:21:52;;;;;;;18.38;10.70;;;14.30;99.00;;;;;;5052163;28;20037;-52
2022/04/22 08:24:18;;;;;;;20.63;10.55;;;14.20;98.50;;;;;;5052820;28;20033;-52
2022/04/22 08:26:45;;;;;;;19.33;9.95;;;14.10;99.60;;;;;;5052624;28;20044;-53
2022/04/22 08:29:10;;;;;;;21.45;10.80;;;14.20;99.10;;;;;;5047850;28;20025;-52
2022/04/22 08:31:36;;;;;;;23.60;10.25;;;14.20;98.10;;;;;;5052556;28;20044;-53
2022/04/22 08:34:02;;;;;;;18.23;9.50;;;14.40;98.60;;;;;;5052023;28;20063;-51
2022/04/22 08:36:30;;;;;;;18.25;9.45;;;14.60;98.50;;;;;;5052661;28;20429;-52
2022/04/22 08:38:59;;;;;;;14.98;8.98;;;14.80;98.60;;;;;;5050465;28;20381;-55
2022/04/22 08:41:26;;;;;;;15.48;9.27;;;15.00;96.80;;;;;;5051962;28;20025;-54
2022/04/22 08:43:56;;;;;;;12.90;8.18;;;15.00;96.50;;;;;;5050721;28;20025;-54
2022/04/22 08:51:54;;;;;;;20.92;9.48;;;15.10;96.00;;;;;;5052143;28;20032;-53
2022/04/22 08:54:21;;;;;;;14.02;8.52;;;15.30;96.50;;;;;;5051860;28;20211;-52
2022/04/22 08:56:50;;;;;;;19.70;9.63;;;15.50;95.70;;;;;;5052121;28;20397;-52
2022/04/22 08:59:16;;;;;;;12.68;7.90;;;15.50;95.20;;;;;;5051394;28;20412;-54
2022/04/22 09:01:42;;;;;;;12.75;7.95;;;15.30;94.30;;;;;;5050781;28;20333;-52
2022/04/22 09:04:07;;;;;;;13.77;8.85;;;15.00;94.70;;;;;;5051597;28;20063;-54
2022/04/22 09:06:34;;;;;;;14.23;8.32;;;14.80;95.00;;;;;;5051670;28;20025;-53
2022/04/22 09:09:00;;;;;;;15.65;9.05;;;14.50;94.80;;;;;;5051496;28;20078;-53
2022/04/22 09:11:29;;;;;;;11.38;8.07;;;14.50;95.90;;;;;;5051543;28;20107;-54
2022/04/22 09:13:54;;;;;;;13.45;8.02;;;14.50;96.30;;;;;;5051431;28;20514;-54
2022/04/22 09:16:21;;;;;;;15.63;8.73;;;14.80;96.20;;;;;;5051543;28;20041;-52
2022/04/22 09:18:47;;;;;;;13.95;8.05;;;15.30;95.20;;;;;;5054625;28;20016;-54
2022/04/22 09:21:17;;;;;;;17.38;8.00;;;15.50;94.30;;;;;;5051153;28;20485;-53
2022/04/22 09:23:45;;;;;;;11.10;7.57;;;15.40;93.70;;;;;;5052798;28;20147;-53
2022/04/22 09:26:24;;;;;;;16.60;8.18;;;15.20;93.70;;;;;;5052741;28;20028;-54
2022/04/22 09:29:05;;;;;;;13.27;7.85;;;15.00;94.40;;;;;;5066601;28;20021;-53
2022/04/22 09:31:47;;;;;;;12.63;7.70;;;14.70;94.50;;;;;;5052056;28;20021;-54
2022/04/22 09:34:14;;;;;;;13.25;7.47;;;14.70;94.40;;;;;;5050368;28;20179;-53
2022/04/22 09:44:59;;;;;;;10.50;6.68;;;15.70;94.60;;;;;;5054171;28;20032;-54
2022/04/22 09:47:27;;;;;;;11.23;6.75;;;16.40;92.20;;;;;;5046936;28;20030;-53
2022/04/22 09:49:53;;;;;;;8.82;6.82;;;16.70;91.30;;;;;;5036458;28;20029;-53
2022/04/22 09:52:27;;;;;;;10.13;6.50;;;17.30;90.80;;;;;;5037104;28;20482;-55
2022/04/22 09:55:01;;;;;;;10.48;6.90;;;17.70;90.90;;;;;;5050685;28;20045;-54
2022/04/22 09:57:28;;;;;;;9.13;6.15;;;18.10;89.50;;;;;;5052003;28;20365;-56
2022/04/22 09:59:54;;;;;;;10.93;7.07;;;18.70;87.80;;;;;;5054129;28;20531;-56
